sensor_id;sensor_type;location;lat;lon;timestamp;P1;durP1;ratioP1;P2;durP2;ratioP2
19587;SDS011;9940;47.252;8.696;2023-05-10T00:00:23;0.30;;;0.30;;
19587;SDS011;9940;47.252;8.696;2023-05-10T00:02:51;0.10;;;0.10;;
19587;SDS011;9940;47.252;8.696;2023-05-10T00:05:17;2.05;;;0.28;;
19587;SDS011;9940;47.252;8.696;2023-05-10T00:07:45;0.22;;;0.15;;
19587;SDS011;9940;47.252;8.696;2023-05-10T00:10:11;0.10;;;0.00;;
19587;SDS011;9940;47.252;8.696;2023-05-10T00:12:39;0.22;;;0.10;;
19587;SDS011;9940;47.252;8.696;2023-05-10T00:15:05;0.00;;;0.00;;
19587;SDS011;9940;47.252;8.696;2023-05-10T00:17:33;0.43;;;0.10;;
19587;SDS011;9940;47.252;8.696;2023-05-10T00:20:03;0.10;;;0.08;;
19587;SDS011;9940;47.252;8.696;2023-05-10T00:22:30;0.52;;;0.10;;
19587;SDS011;9940;47.252;8.696;2023-05-10T00:24:58;0.22;;;0.22;;
19587;SDS011;9940;47.252;8.696;2023-05-10T00:27:26;1.38;;;0.15;;
19587;SDS011;9940;47.252;8.696;2023-05-10T00:29:57;0.10;;;0.10;;
19587;SDS011;9940;47.252;8.696;2023-05-10T00:32:22;0.55;;;0.10;;
19587;SDS011;9940;47.252;8.696;2023-05-10T00:34:48;0.30;;;0.20;;
19587;SDS011;9940;47.252;8.696;2023-05-10T00:37:13;0.15;;;0.15;;
19587;SDS011;9940;47.252;8.696;2023-05-10T00:39:41;0.03;;;0.03;;
19587;SDS011;9940;47.252;8.696;2023-05-10T00:42:07;0.68;;;0.20;;
19587;SDS011;9940;47.252;8.696;2023-05-10T00:44:35;0.10;;;0.10;;
19587;SDS011;9940;47.252;8.696;2023-05-10T00:47:03;0.25;;;0.25;;
19587;SDS011;9940;47.252;8.696;2023-05-10T00:49:29;0.10;;;0.10;;
19587;SDS011;9940;47.252;8.696;2023-05-10T00:51:54;1.45;;;0.20;;
19587;SDS011;9940;47.252;8.696;2023-05-10T00:54:20;0.30;;;0.10;;
19587;SDS011;9940;47.252;8.696;2023-05-10T00:56:46;0.20;;;0.20;;
19587;SDS011;9940;47.252;8.696;2023-05-10T00:59:16;0.30;;;0.30;;
19587;SDS011;9940;47.252;8.696;2023-05-10T01:01:45;0.10;;;0.10;;
19587;SDS011;9940;47.252;8.696;2023-05-10T01:04:11;0.75;;;0.30;;
19587;SDS011;9940;47.252;8.696;2023-05-10T01:06:38;0.30;;;0.30;;
19587;SDS011;9940;47.252;8.696;2023-05-10T01:09:07;0.20;;;0.20;;
19587;SDS011;9940;47.252;8.696;2023-05-10T01:11:36;0.35;;;0.35;;
19587;SDS011;9940;47.252;8.696;2023-05-10T01:14:04;0.20;;;0.20;;
19587;SDS011;9940;47.252;8.696;2023-05-10T01:16:36;1.08;;;0.17;;
19587;SDS011;9940;47.252;8.696;2023-05-10T01:22:02;0.40;;;0.30;;
19587;SDS011;9940;47.252;8.696;2023-05-10T01:27:58;0.68;;;0.28;;
19587;SDS011;9940;47.252;8.696;2023-05-10T01:30:51;0.22;;;0.22;;
19587;SDS011;9940;47.252;8.696;2023-05-10T01:33:39;0.10;;;0.10;;
19587;SDS011;9940;47.252;8.696;2023-05-10T01:36:08;0.10;;;0.10;;
19587;SDS011;9940;47.252;8.696;2023-05-10T01:39:15;1.38;;;0.20;;
19587;SDS011;9940;47.252;8.696;2023-05-10T01:42:08;0.28;;;0.20;;
19587;SDS011;9940;47.252;8.696;2023-05-10T01:44:40;0.65;;;0.30;;
19587;SDS011;9940;47.252;8.696;2023-05-10T01:47:17;0.20;;;0.20;;
19587;SDS011;9940;47.252;8.696;2023-05-10T01:49:50;0.43;;;0.22;;
19587;SDS011;9940;47.252;8.696;2023-05-10T01:52:22;2.00;;;0.32;;
19587;SDS011;9940;47.252;8.696;2023-05-10T01:54:55;2.50;;;0.30;;
19587;SDS011;9940;47.252;8.696;2023-05-10T01:57:31;0.90;;;0.27;;
19587;SDS011;9940;47.252;8.696;2023-05-10T01:59:59;2.95;;;0.20;;
19587;SDS011;9940;47.252;8.696;2023-05-10T02:02:33;0.10;;;0.10;;
19587;SDS011;9940;47.252;8.696;2023-05-10T02:05:07;0.52;;;0.30;;
19587;SDS011;9940;47.252;8.696;2023-05-10T02:07:36;0.50;;;0.28;;
19587;SDS011;9940;47.252;8.696;2023-05-10T02:10:03;0.22;;;0.20;;
19587;SDS011;9940;47.252;8.696;2023-05-10T02:12:36;1.52;;;0.30;;
19587;SDS011;9940;47.252;8.696;2023-05-10T02:15:06;1.98;;;0.38;;
19587;SDS011;9940;47.252;8.696;2023-05-10T02:17:36;0.40;;;0.40;;
19587;SDS011;9940;47.252;8.696;2023-05-10T02:20:04;0.40;;;0.40;;
19587;SDS011;9940;47.252;8.696;2023-05-10T02:22:32;1.58;;;0.45;;
19587;SDS011;9940;47.252;8.696;2023-05-10T02:25:00;0.50;;;0.30;;
19587;SDS011;9940;47.252;8.696;2023-05-10T02:27:27;1.65;;;0.30;;
19587;SDS011;9940;47.252;8.696;2023-05-10T02:29:57;0.40;;;0.40;;
19587;SDS011;9940;47.252;8.696;2023-05-10T02:32:23;3.25;;;0.45;;
19587;SDS011;9940;47.252;8.696;2023-05-10T02:34:51;0.30;;;0.30;;
19587;SDS011;9940;47.252;8.696;2023-05-10T02:37:21;0.35;;;0.30;;
19587;SDS011;9940;47.252;8.696;2023-05-10T02:39:47;0.32;;;0.25;;
19587;SDS011;9940;47.252;8.696;2023-05-10T02:42:22;0.40;;;0.40;;
19587;SDS011;9940;47.252;8.696;2023-05-10T02:44:53;2.45;;;0.40;;
19587;SDS011;9940;47.252;8.696;2023-05-10T02:47:24;0.60;;;0.60;;
19587;SDS011;9940;47.252;8.696;2023-05-10T02:49:52;0.40;;;0.40;;
19587;SDS011;9940;47.252;8.696;2023-05-10T02:52:22;1.42;;;0.57;;
19587;SDS011;9940;47.252;8.696;2023-05-10T02:54:52;0.40;;;0.40;;
19587;SDS011;9940;47.252;8.696;2023-05-10T02:57:28;0.30;;;0.30;;
19587;SDS011;9940;47.252;8.696;2023-05-10T02:59:58;0.45;;;0.40;;
19587;SDS011;9940;47.252;8.696;2023-05-10T03:02:25;0.10;;;0.10;;
19587;SDS011;9940;47.252;8.696;2023-05-10T03:04:51;0.20;;;0.20;;
19587;SDS011;9940;47.252;8.696;2023-05-10T03:07:17;0.30;;;0.30;;
19587;SDS011;9940;47.252;8.696;2023-05-10T03:09:46;0.40;;;0.40;;
19587;SDS011;9940;47.252;8.696;2023-05-10T03:12:23;1.60;;;0.40;;
19587;SDS011;9940;47.252;8.696;2023-05-10T03:17:35;0.98;;;0.80;;
19587;SDS011;9940;47.252;8.696;2023-05-10T03:20:16;0.50;;;0.43;;
19587;SDS011;9940;47.252;8.696;2023-05-10T03:23:02;0.50;;;0.50;;
19587;SDS011;9940;47.252;8.696;2023-05-10T03:25:47;0.73;;;0.52;;
19587;SDS011;9940;47.252;8.696;2023-05-10T03:28:16;0.40;;;0.35;;
19587;SDS011;9940;47.252;8.696;2023-05-10T03:30:46;1.05;;;0.50;;
19587;SDS011;9940;47.252;8.696;2023-05-10T03:33:12;1.85;;;0.65;;
19587;SDS011;9940;47.252;8.696;2023-05-10T03:35:40;0.60;;;0.60;;
19587;SDS011;9940;47.252;8.696;2023-05-10T03:38:10;0.50;;;0.50;;
19587;SDS011;9940;47.252;8.696;2023-05-10T03:40:36;0.52;;;0.40;;
19587;SDS011;9940;47.252;8.696;2023-05-10T03:43:05;0.40;;;0.30;;
19587;SDS011;9940;47.252;8.696;2023-05-10T03:45:31;0.30;;;0.30;;
19587;SDS011;9940;47.252;8.696;2023-05-10T03:47:56;0.50;;;0.50;;
19587;SDS011;9940;47.252;8.696;2023-05-10T03:50:23;0.40;;;0.40;;
19587;SDS011;9940;47.252;8.696;2023-05-10T03:52:51;0.63;;;0.20;;
19587;SDS011;9940;47.252;8.696;2023-05-10T03:55:16;0.40;;;0.40;;
19587;SDS011;9940;47.252;8.696;2023-05-10T03:57:42;0.77;;;0.68;;
19587;SDS011;9940;47.252;8.696;2023-05-10T04:00:10;0.88;;;0.40;;
19587;SDS011;9940;47.252;8.696;2023-05-10T04:02:39;0.52;;;0.35;;
19587;SDS011;9940;47.252;8.696;2023-05-10T04:05:05;0.52;;;0.52;;
19587;SDS011;9940;47.252;8.696;2023-05-10T04:07:31;1.00;;;0.52;;
19587;SDS011;9940;47.252;8.696;2023-05-10T04:12:46;0.43;;;0.40;;
19587;SDS011;9940;47.252;8.696;2023-05-10T04:15:11;2.38;;;1.00;;
19587;SDS011;9940;47.252;8.696;2023-05-10T04:17:37;1.20;;;0.57;;
19587;SDS011;9940;47.252;8.696;2023-05-10T04:20:03;0.57;;;0.57;;
19587;SDS011;9940;47.252;8.696;2023-05-10T04:22:32;0.55;;;0.40;;
19587;SDS011;9940;47.252;8.696;2023-05-10T04:24:57;2.45;;;0.60;;
19587;SDS011;9940;47.252;8.696;2023-05-10T04:27:25;0.65;;;0.45;;
19587;SDS011;9940;47.252;8.696;2023-05-10T04:29:53;0.73;;;0.47;;
19587;SDS011;9940;47.252;8.696;2023-05-10T04:32:21;0.95;;;0.40;;
19587;SDS011;9940;47.252;8.696;2023-05-10T04:34:46;0.35;;;0.30;;
19587;SDS011;9940;47.252;8.696;2023-05-10T04:37:12;0.55;;;0.40;;
19587;SDS011;9940;47.252;8.696;2023-05-10T04:39:40;0.80;;;0.50;;
19587;SDS011;9940;47.252;8.696;2023-05-10T04:42:08;0.55;;;0.50;;
19587;SDS011;9940;47.252;8.696;2023-05-10T04:44:34;0.80;;;0.65;;
19587;SDS011;9940;47.252;8.696;2023-05-10T04:47:03;0.60;;;0.60;;
19587;SDS011;9940;47.252;8.696;2023-05-10T04:49:31;0.82;;;0.38;;
19587;SDS011;9940;47.252;8.696;2023-05-10T04:51:57;0.40;;;0.30;;
19587;SDS011;9940;47.252;8.696;2023-05-10T04:54:25;0.43;;;0.40;;
19587;SDS011;9940;47.252;8.696;2023-05-10T04:56:50;0.90;;;0.40;;
19587;SDS011;9940;47.252;8.696;2023-05-10T04:59:16;1.60;;;0.50;;
19587;SDS011;9940;47.252;8.696;2023-05-10T05:01:44;1.52;;;0.40;;
19587;SDS011;9940;47.252;8.696;2023-05-10T05:04:12;0.52;;;0.40;;
19587;SDS011;9940;47.252;8.696;2023-05-10T05:06:37;0.77;;;0.40;;
19587;SDS011;9940;47.252;8.696;2023-05-10T05:09:03;0.30;;;0.30;;
19587;SDS011;9940;47.252;8.696;2023-05-10T05:11:31;0.80;;;0.52;;
19587;SDS011;9940;47.252;8.696;2023-05-10T05:13:59;0.50;;;0.50;;
19587;SDS011;9940;47.252;8.696;2023-05-10T05:16:25;2.67;;;0.50;;
19587;SDS011;9940;47.252;8.696;2023-05-10T05:18:53;1.27;;;0.30;;
19587;SDS011;9940;47.252;8.696;2023-05-10T05:21:19;0.60;;;0.40;;
19587;SDS011;9940;47.252;8.696;2023-05-10T05:23:46;0.40;;;0.40;;
19587;SDS011;9940;47.252;8.696;2023-05-10T05:26:11;0.57;;;0.40;;
19587;SDS011;9940;47.252;8.696;2023-05-10T05:28:40;0.73;;;0.73;;
19587;SDS011;9940;47.252;8.696;2023-05-10T05:31:08;0.35;;;0.20;;
19587;SDS011;9940;47.252;8.696;2023-05-10T05:33:36;0.38;;;0.30;;
19587;SDS011;9940;47.252;8.696;2023-05-10T05:36:04;1.88;;;0.40;;
19587;SDS011;9940;47.252;8.696;2023-05-10T05:38:30;0.98;;;0.50;;
19587;SDS011;9940;47.252;8.696;2023-05-10T05:41:01;0.40;;;0.40;;
19587;SDS011;9940;47.252;8.696;2023-05-10T05:43:27;0.73;;;0.40;;
19587;SDS011;9940;47.252;8.696;2023-05-10T05:45:52;0.70;;;0.20;;
19587;SDS011;9940;47.252;8.696;2023-05-10T05:48:22;0.47;;;0.28;;
19587;SDS011;9940;47.252;8.696;2023-05-10T05:50:48;0.30;;;0.30;;
19587;SDS011;9940;47.252;8.696;2023-05-10T05:53:21;1.42;;;1.00;;
19587;SDS011;9940;47.252;8.696;2023-05-10T05:55:53;0.50;;;0.50;;
19587;SDS011;9940;47.252;8.696;2023-05-10T05:58:22;0.73;;;0.40;;
19587;SDS011;9940;47.252;8.696;2023-05-10T06:00:49;0.30;;;0.30;;
19587;SDS011;9940;47.252;8.696;2023-05-10T06:03:16;0.57;;;0.30;;
19587;SDS011;9940;47.252;8.696;2023-05-10T06:05:42;0.50;;;0.30;;
19587;SDS011;9940;47.252;8.696;2023-05-10T06:08:08;0.77;;;0.30;;
19587;SDS011;9940;47.252;8.696;2023-05-10T06:10:34;0.22;;;0.20;;
19587;SDS011;9940;47.252;8.696;2023-05-10T06:13:03;0.85;;;0.28;;
19587;SDS011;9940;47.252;8.696;2023-05-10T06:15:31;1.02;;;0.60;;
19587;SDS011;9940;47.252;8.696;2023-05-10T06:18:01;0.30;;;0.30;;
19587;SDS011;9940;47.252;8.696;2023-05-10T06:20:27;2.10;;;0.30;;
19587;SDS011;9940;47.252;8.696;2023-05-10T06:22:53;1.05;;;0.20;;
19587;SDS011;9940;47.252;8.696;2023-05-10T06:25:18;1.30;;;0.50;;
19587;SDS011;9940;47.252;8.696;2023-05-10T06:27:44;0.60;;;0.40;;
19587;SDS011;9940;47.252;8.696;2023-05-10T06:30:10;0.77;;;0.60;;
19587;SDS011;9940;47.252;8.696;2023-05-10T06:32:38;0.82;;;0.35;;
19587;SDS011;9940;47.252;8.696;2023-05-10T06:35:03;0.30;;;0.30;;
19587;SDS011;9940;47.252;8.696;2023-05-10T06:37:29;0.82;;;0.50;;
19587;SDS011;9940;47.252;8.696;2023-05-10T06:40:00;0.30;;;0.30;;
19587;SDS011;9940;47.252;8.696;2023-05-10T06:42:29;1.05;;;0.45;;
19587;SDS011;9940;47.252;8.696;2023-05-10T06:44:54;0.50;;;0.30;;
19587;SDS011;9940;47.252;8.696;2023-05-10T06:47:20;0.55;;;0.40;;
19587;SDS011;9940;47.252;8.696;2023-05-10T06:49:49;0.30;;;0.30;;
19587;SDS011;9940;47.252;8.696;2023-05-10T06:52:14;0.30;;;0.30;;
19587;SDS011;9940;47.252;8.696;2023-05-10T06:54:42;0.20;;;0.20;;
19587;SDS011;9940;47.252;8.696;2023-05-10T06:57:09;0.43;;;0.40;;
19587;SDS011;9940;47.252;8.696;2023-05-10T06:59:37;1.95;;;0.50;;
19587;SDS011;9940;47.252;8.696;2023-05-10T07:02:05;0.80;;;0.40;;
19587;SDS011;9940;47.252;8.696;2023-05-10T07:04:33;1.17;;;0.50;;
19587;SDS011;9940;47.252;8.696;2023-05-10T07:06:58;0.57;;;0.40;;
19587;SDS011;9940;47.252;8.696;2023-05-10T07:09:24;0.95;;;0.40;;
19587;SDS011;9940;47.252;8.696;2023-05-10T07:11:50;0.65;;;0.30;;
19587;SDS011;9940;47.252;8.696;2023-05-10T07:14:15;0.30;;;0.22;;
19587;SDS011;9940;47.252;8.696;2023-05-10T07:16:41;0.40;;;0.40;;
19587;SDS011;9940;47.252;8.696;2023-05-10T07:19:07;0.70;;;0.30;;
19587;SDS011;9940;47.252;8.696;2023-05-10T07:21:32;0.85;;;0.30;;
19587;SDS011;9940;47.252;8.696;2023-05-10T07:24:02;2.72;;;0.40;;
19587;SDS011;9940;47.252;8.696;2023-05-10T07:26:29;0.30;;;0.30;;
19587;SDS011;9940;47.252;8.696;2023-05-10T07:28:57;0.40;;;0.40;;
19587;SDS011;9940;47.252;8.696;2023-05-10T07:31:25;0.32;;;0.30;;
19587;SDS011;9940;47.252;8.696;2023-05-10T07:33:50;0.98;;;0.55;;
19587;SDS011;9940;47.252;8.696;2023-05-10T07:36:18;0.95;;;0.40;;
19587;SDS011;9940;47.252;8.696;2023-05-10T07:38:44;1.65;;;0.60;;
19587;SDS011;9940;47.252;8.696;2023-05-10T07:41:10;1.33;;;0.70;;
19587;SDS011;9940;47.252;8.696;2023-05-10T07:43:39;1.20;;;0.40;;
19587;SDS011;9940;47.252;8.696;2023-05-10T07:46:04;1.90;;;0.45;;
19587;SDS011;9940;47.252;8.696;2023-05-10T07:48:30;2.97;;;0.63;;
19587;SDS011;9940;47.252;8.696;2023-05-10T07:50:56;0.43;;;0.40;;
19587;SDS011;9940;47.252;8.696;2023-05-10T07:53:22;0.55;;;0.40;;
19587;SDS011;9940;47.252;8.696;2023-05-10T07:55:51;0.68;;;0.50;;
19587;SDS011;9940;47.252;8.696;2023-05-10T07:58:19;0.53;;;0.30;;
19587;SDS011;9940;47.252;8.696;2023-05-10T08:00:47;0.82;;;0.45;;
19587;SDS011;9940;47.252;8.696;2023-05-10T08:03:13;0.17;;;0.17;;
19587;SDS011;9940;47.252;8.696;2023-05-10T08:05:39;0.20;;;0.20;;
19587;SDS011;9940;47.252;8.696;2023-05-10T08:08:07;2.50;;;0.40;;
19587;SDS011;9940;47.252;8.696;2023-05-10T08:10:39;0.93;;;0.47;;
19587;SDS011;9940;47.252;8.696;2023-05-10T08:13:05;0.20;;;0.20;;
19587;SDS011;9940;47.252;8.696;2023-05-10T08:15:31;0.65;;;0.40;;
19587;SDS011;9940;47.252;8.696;2023-05-10T08:17:56;4.38;;;2.17;;
19587;SDS011;9940;47.252;8.696;2023-05-10T08:20:24;1.95;;;0.50;;
19587;SDS011;9940;47.252;8.696;2023-05-10T08:22:50;1.05;;;0.68;;
19587;SDS011;9940;47.252;8.696;2023-05-10T08:25:18;0.50;;;0.40;;
19587;SDS011;9940;47.252;8.696;2023-05-10T08:27:43;0.60;;;0.50;;
19587;SDS011;9940;47.252;8.696;2023-05-10T08:30:09;1.55;;;0.50;;
19587;SDS011;9940;47.252;8.696;2023-05-10T08:32:35;0.50;;;0.40;;
19587;SDS011;9940;47.252;8.696;2023-05-10T08:35:05;1.13;;;0.40;;
19587;SDS011;9940;47.252;8.696;2023-05-10T08:37:30;0.50;;;0.50;;
19587;SDS011;9940;47.252;8.696;2023-05-10T08:39:58;1.27;;;0.50;;
19587;SDS011;9940;47.252;8.696;2023-05-10T08:42:24;1.67;;;0.40;;
19587;SDS011;9940;47.252;8.696;2023-05-10T08:44:53;0.88;;;0.40;;
19587;SDS011;9940;47.252;8.696;2023-05-10T08:47:20;1.20;;;0.60;;
19587;SDS011;9940;47.252;8.696;2023-05-10T08:49:46;1.15;;;0.50;;
19587;SDS011;9940;47.252;8.696;2023-05-10T08:52:16;2.10;;;0.70;;
19587;SDS011;9940;47.252;8.696;2023-05-10T08:54:43;1.23;;;0.45;;
19587;SDS011;9940;47.252;8.696;2023-05-10T08:57:11;0.80;;;0.50;;
19587;SDS011;9940;47.252;8.696;2023-05-10T08:59:36;0.82;;;0.60;;
19587;SDS011;9940;47.252;8.696;2023-05-10T09:02:04;0.85;;;0.57;;
19587;SDS011;9940;47.252;8.696;2023-05-10T09:04:32;3.50;;;0.75;;
19587;SDS011;9940;47.252;8.696;2023-05-10T09:06:58;3.10;;;0.73;;
19587;SDS011;9940;47.252;8.696;2023-05-10T09:09:24;1.77;;;0.70;;
19587;SDS011;9940;47.252;8.696;2023-05-10T09:11:51;3.25;;;0.60;;
19587;SDS011;9940;47.252;8.696;2023-05-10T09:14:17;2.47;;;0.50;;
19587;SDS011;9940;47.252;8.696;2023-05-10T09:16:44;0.88;;;0.68;;
19587;SDS011;9940;47.252;8.696;2023-05-10T09:19:10;3.72;;;0.68;;
19587;SDS011;9940;47.252;8.696;2023-05-10T09:21:38;0.98;;;0.70;;
19587;SDS011;9940;47.252;8.696;2023-05-10T09:24:05;0.85;;;0.60;;
19587;SDS011;9940;47.252;8.696;2023-05-10T09:26:32;2.75;;;0.60;;
19587;SDS011;9940;47.252;8.696;2023-05-10T09:28:58;1.20;;;0.63;;
19587;SDS011;9940;47.252;8.696;2023-05-10T09:31:25;5.93;;;1.75;;
19587;SDS011;9940;47.252;8.696;2023-05-10T09:34:22;2.35;;;1.00;;
19587;SDS011;9940;47.252;8.696;2023-05-10T09:36:55;1.17;;;0.68;;
19587;SDS011;9940;47.252;8.696;2023-05-10T09:39:32;0.60;;;0.50;;
19587;SDS011;9940;47.252;8.696;2023-05-10T09:42:02;1.35;;;0.70;;
19587;SDS011;9940;47.252;8.696;2023-05-10T09:44:32;0.45;;;0.45;;
19587;SDS011;9940;47.252;8.696;2023-05-10T09:46:59;1.13;;;0.80;;
19587;SDS011;9940;47.252;8.696;2023-05-10T09:49:28;2.38;;;1.02;;
19587;SDS011;9940;47.252;8.696;2023-05-10T09:54:27;6.38;;;1.60;;
19587;SDS011;9940;47.252;8.696;2023-05-10T09:56:53;1.13;;;0.70;;
19587;SDS011;9940;47.252;8.696;2023-05-10T09:59:21;1.02;;;0.93;;
19587;SDS011;9940;47.252;8.696;2023-05-10T10:01:50;1.77;;;0.80;;
19587;SDS011;9940;47.252;8.696;2023-05-10T10:04:18;1.30;;;0.80;;
19587;SDS011;9940;47.252;8.696;2023-05-10T10:06:45;4.05;;;0.93;;
19587;SDS011;9940;47.252;8.696;2023-05-10T10:09:11;3.78;;;0.77;;
19587;SDS011;9940;47.252;8.696;2023-05-10T10:11:39;3.40;;;0.98;;
19587;SDS011;9940;47.252;8.696;2023-05-10T10:14:10;2.78;;;1.35;;
19587;SDS011;9940;47.252;8.696;2023-05-10T10:16:37;2.65;;;1.60;;
19587;SDS011;9940;47.252;8.696;2023-05-10T10:19:07;2.13;;;0.90;;
19587;SDS011;9940;47.252;8.696;2023-05-10T10:21:37;5.03;;;1.13;;
19587;SDS011;9940;47.252;8.696;2023-05-10T10:24:03;1.25;;;0.80;;
19587;SDS011;9940;47.252;8.696;2023-05-10T10:26:33;1.58;;;1.00;;
19587;SDS011;9940;47.252;8.696;2023-05-10T10:31:41;1.23;;;0.82;;
19587;SDS011;9940;47.252;8.696;2023-05-10T10:34:25;1.17;;;0.82;;
19587;SDS011;9940;47.252;8.696;2023-05-10T10:36:57;1.08;;;0.98;;
19587;SDS011;9940;47.252;8.696;2023-05-10T10:39:28;3.58;;;1.20;;
19587;SDS011;9940;47.252;8.696;2023-05-10T10:41:57;2.28;;;0.95;;
19587;SDS011;9940;47.252;8.696;2023-05-10T10:52:24;0.85;;;0.70;;
19587;SDS011;9940;47.252;8.696;2023-05-10T11:02:50;2.47;;;0.80;;
19587;SDS011;9940;47.252;8.696;2023-05-10T11:08:12;1.52;;;0.70;;
19587;SDS011;9940;47.252;8.696;2023-05-10T11:18:57;2.85;;;1.27;;
19587;SDS011;9940;47.252;8.696;2023-05-10T11:21:27;1.98;;;1.20;;
19587;SDS011;9940;47.252;8.696;2023-05-10T11:23:55;2.15;;;1.23;;
19587;SDS011;9940;47.252;8.696;2023-05-10T11:26:30;2.20;;;1.20;;
19587;SDS011;9940;47.252;8.696;2023-05-10T11:28:57;1.75;;;1.20;;
19587;SDS011;9940;47.252;8.696;2023-05-10T11:31:25;2.35;;;1.38;;
19587;SDS011;9940;47.252;8.696;2023-05-10T11:33:55;2.17;;;1.50;;
19587;SDS011;9940;47.252;8.696;2023-05-10T11:36:24;1.40;;;1.30;;
19587;SDS011;9940;47.252;8.696;2023-05-10T11:39:08;3.33;;;1.25;;
19587;SDS011;9940;47.252;8.696;2023-05-10T11:41:36;1.52;;;1.42;;
19587;SDS011;9940;47.252;8.696;2023-05-10T11:44:02;3.38;;;1.48;;
19587;SDS011;9940;47.252;8.696;2023-05-10T11:46:28;3.58;;;1.60;;
19587;SDS011;9940;47.252;8.696;2023-05-10T11:48:57;3.85;;;1.70;;
19587;SDS011;9940;47.252;8.696;2023-05-10T11:51:33;3.22;;;1.08;;
19587;SDS011;9940;47.252;8.696;2023-05-10T11:54:01;1.85;;;1.10;;
19587;SDS011;9940;47.252;8.696;2023-05-10T11:56:33;2.30;;;0.90;;
19587;SDS011;9940;47.252;8.696;2023-05-10T11:58:59;2.22;;;0.90;;
19587;SDS011;9940;47.252;8.696;2023-05-10T12:01:27;2.25;;;0.98;;
19587;SDS011;9940;47.252;8.696;2023-05-10T12:03:53;2.40;;;1.05;;
19587;SDS011;9940;47.252;8.696;2023-05-10T12:06:26;1.10;;;0.95;;
19587;SDS011;9940;47.252;8.696;2023-05-10T12:08:53;4.93;;;1.00;;
19587;SDS011;9940;47.252;8.696;2023-05-10T12:11:19;1.83;;;0.95;;
19587;SDS011;9940;47.252;8.696;2023-05-10T12:13:47;3.60;;;1.17;;
19587;SDS011;9940;47.252;8.696;2023-05-10T12:18:44;1.50;;;1.10;;
19587;SDS011;9940;47.252;8.696;2023-05-10T12:21:13;2.05;;;1.15;;
19587;SDS011;9940;47.252;8.696;2023-05-10T12:23:43;1.50;;;0.85;;
19587;SDS011;9940;47.252;8.696;2023-05-10T12:26:11;1.95;;;1.00;;
19587;SDS011;9940;47.252;8.696;2023-05-10T12:28:39;2.13;;;1.17;;
19587;SDS011;9940;47.252;8.696;2023-05-10T12:31:07;2.05;;;1.10;;
19587;SDS011;9940;47.252;8.696;2023-05-10T12:33:37;1.27;;;1.17;;
19587;SDS011;9940;47.252;8.696;2023-05-10T12:36:09;1.50;;;1.20;;
19587;SDS011;9940;47.252;8.696;2023-05-10T12:38:39;1.40;;;1.02;;
19587;SDS011;9940;47.252;8.696;2023-05-10T12:41:11;1.42;;;1.00;;
19587;SDS011;9940;47.252;8.696;2023-05-10T12:43:38;2.13;;;1.10;;
19587;SDS011;9940;47.252;8.696;2023-05-10T12:46:11;3.90;;;1.30;;
19587;SDS011;9940;47.252;8.696;2023-05-10T12:48:38;2.45;;;1.38;;
19587;SDS011;9940;47.252;8.696;2023-05-10T12:51:05;2.33;;;1.52;;
19587;SDS011;9940;47.252;8.696;2023-05-10T12:53:36;7.05;;;1.70;;
19587;SDS011;9940;47.252;8.696;2023-05-10T12:56:05;5.60;;;1.27;;
19587;SDS011;9940;47.252;8.696;2023-05-10T12:58:31;1.00;;;0.90;;
19587;SDS011;9940;47.252;8.696;2023-05-10T13:00:57;2.83;;;0.82;;
19587;SDS011;9940;47.252;8.696;2023-05-10T13:03:23;2.45;;;1.10;;
19587;SDS011;9940;47.252;8.696;2023-05-10T13:05:49;3.50;;;1.15;;
19587;SDS011;9940;47.252;8.696;2023-05-10T13:08:15;1.95;;;0.95;;
19587;SDS011;9940;47.252;8.696;2023-05-10T13:10:40;1.25;;;1.13;;
19587;SDS011;9940;47.252;8.696;2023-05-10T13:13:08;1.90;;;0.90;;
19587;SDS011;9940;47.252;8.696;2023-05-10T13:15:36;1.58;;;1.30;;
19587;SDS011;9940;47.252;8.696;2023-05-10T13:18:04;1.80;;;1.23;;
19587;SDS011;9940;47.252;8.696;2023-05-10T13:20:29;2.58;;;1.40;;
19587;SDS011;9940;47.252;8.696;2023-05-10T13:22:55;3.47;;;1.63;;
19587;SDS011;9940;47.252;8.696;2023-05-10T13:25:21;6.03;;;2.55;;
19587;SDS011;9940;47.252;8.696;2023-05-10T13:27:46;1.83;;;1.60;;
19587;SDS011;9940;47.252;8.696;2023-05-10T13:30:14;2.20;;;1.33;;
19587;SDS011;9940;47.252;8.696;2023-05-10T13:32:42;4.38;;;1.52;;
19587;SDS011;9940;47.252;8.696;2023-05-10T13:35:10;2.00;;;1.10;;
19587;SDS011;9940;47.252;8.696;2023-05-10T13:37:36;1.00;;;1.00;;
19587;SDS011;9940;47.252;8.696;2023-05-10T13:40:02;4.07;;;1.45;;
19587;SDS011;9940;47.252;8.696;2023-05-10T13:42:29;1.48;;;0.80;;
19587;SDS011;9940;47.252;8.696;2023-05-10T13:44:56;2.17;;;1.00;;
19587;SDS011;9940;47.252;8.696;2023-05-10T13:47:22;5.20;;;1.40;;
19587;SDS011;9940;47.252;8.696;2023-05-10T13:49:47;1.52;;;0.75;;
19587;SDS011;9940;47.252;8.696;2023-05-10T13:52:13;1.50;;;1.40;;
19587;SDS011;9940;47.252;8.696;2023-05-10T13:54:39;2.53;;;2.05;;
19587;SDS011;9940;47.252;8.696;2023-05-10T13:57:04;1.33;;;1.00;;
19587;SDS011;9940;47.252;8.696;2023-05-10T13:59:32;0.73;;;0.70;;
19587;SDS011;9940;47.252;8.696;2023-05-10T14:02:00;4.25;;;1.88;;
19587;SDS011;9940;47.252;8.696;2023-05-10T14:04:29;2.78;;;2.05;;
19587;SDS011;9940;47.252;8.696;2023-05-10T14:06:57;5.47;;;3.28;;
19587;SDS011;9940;47.252;8.696;2023-05-10T14:09:27;1.95;;;1.40;;
19587;SDS011;9940;47.252;8.696;2023-05-10T14:11:53;1.65;;;1.20;;
19587;SDS011;9940;47.252;8.696;2023-05-10T14:14:18;2.80;;;1.23;;
19587;SDS011;9940;47.252;8.696;2023-05-10T14:16:44;1.40;;;1.30;;
19587;SDS011;9940;47.252;8.696;2023-05-10T14:19:10;2.10;;;1.25;;
19587;SDS011;9940;47.252;8.696;2023-05-10T14:21:36;2.92;;;1.58;;
19587;SDS011;9940;47.252;8.696;2023-05-10T14:24:04;2.83;;;2.28;;
19587;SDS011;9940;47.252;8.696;2023-05-10T14:26:32;2.42;;;1.95;;
19587;SDS011;9940;47.252;8.696;2023-05-10T14:29:01;2.00;;;1.80;;
19587;SDS011;9940;47.252;8.696;2023-05-10T14:31:30;1.50;;;1.40;;
19587;SDS011;9940;47.252;8.696;2023-05-10T14:33:55;2.40;;;2.30;;
19587;SDS011;9940;47.252;8.696;2023-05-10T14:36:22;3.83;;;1.90;;
19587;SDS011;9940;47.252;8.696;2023-05-10T14:38:50;1.80;;;1.70;;
19587;SDS011;9940;47.252;8.696;2023-05-10T14:41:16;1.75;;;1.65;;
19587;SDS011;9940;47.252;8.696;2023-05-10T14:43:42;1.55;;;1.45;;
19587;SDS011;9940;47.252;8.696;2023-05-10T14:46:08;1.88;;;1.40;;
19587;SDS011;9940;47.252;8.696;2023-05-10T14:48:34;2.47;;;1.58;;
19587;SDS011;9940;47.252;8.696;2023-05-10T14:51:01;1.10;;;1.00;;
19587;SDS011;9940;47.252;8.696;2023-05-10T14:53:29;27.10;;;8.43;;
19587;SDS011;9940;47.252;8.696;2023-05-10T14:55:55;1.77;;;1.60;;
19587;SDS011;9940;47.252;8.696;2023-05-10T14:58:21;2.80;;;2.60;;
19587;SDS011;9940;47.252;8.696;2023-05-10T15:00:46;3.95;;;2.55;;
19587;SDS011;9940;47.252;8.696;2023-05-10T15:03:12;2.38;;;2.17;;
19587;SDS011;9940;47.252;8.696;2023-05-10T15:05:40;2.03;;;1.83;;
19587;SDS011;9940;47.252;8.696;2023-05-10T15:08:08;2.55;;;2.17;;
19587;SDS011;9940;47.252;8.696;2023-05-10T15:10:37;9.55;;;6.03;;
19587;SDS011;9940;47.252;8.696;2023-05-10T15:13:03;6.28;;;5.68;;
19587;SDS011;9940;47.252;8.696;2023-05-10T15:15:29;4.63;;;4.22;;
19587;SDS011;9940;47.252;8.696;2023-05-10T15:17:55;2.80;;;2.60;;
19587;SDS011;9940;47.252;8.696;2023-05-10T15:20:21;1.65;;;1.55;;
19587;SDS011;9940;47.252;8.696;2023-05-10T15:22:52;3.00;;;1.40;;
19587;SDS011;9940;47.252;8.696;2023-05-10T15:25:20;1.42;;;0.90;;
19587;SDS011;9940;47.252;8.696;2023-05-10T15:27:48;1.20;;;1.20;;
19587;SDS011;9940;47.252;8.696;2023-05-10T15:30:14;0.82;;;0.82;;
19587;SDS011;9940;47.252;8.696;2023-05-10T15:32:40;0.90;;;0.90;;
19587;SDS011;9940;47.252;8.696;2023-05-10T15:35:07;0.93;;;0.70;;
19587;SDS011;9940;47.252;8.696;2023-05-10T15:37:36;3.45;;;0.82;;
19587;SDS011;9940;47.252;8.696;2023-05-10T15:40:04;2.20;;;0.90;;
19587;SDS011;9940;47.252;8.696;2023-05-10T15:42:30;1.13;;;1.05;;
19587;SDS011;9940;47.252;8.696;2023-05-10T15:45:00;1.42;;;0.95;;
19587;SDS011;9940;47.252;8.696;2023-05-10T15:47:26;0.88;;;0.88;;
19587;SDS011;9940;47.252;8.696;2023-05-10T15:49:54;0.63;;;0.63;;
19587;SDS011;9940;47.252;8.696;2023-05-10T15:52:23;0.70;;;0.70;;